CPD6 weather

Parry Sound/St. Waleran Island Seaplane Base
Ontario, Canada

Public forecast

Using degrees Celsius for public forecast. Weather courtesy of forecast.io.

METAR (pilot weather report)

Closest report is Muskoka Airport, 41.6 nm (77.0 km) ESE. Retrieved 2019/09/16 03:00 UTC (30 minutes ago):

CYQA 160300Z AUTO 00000KT 9SM FEW230 06/06 A3011 RMK SLP204

TAF (pilot weather forecast)

Forecast is more than 6 hours old.

Closest forecast is Muskoka Airport, 41.6 nm (77.0 km) ESE. Retrieved 2019/09/15 20:00 UTC (7 hours ago):

TAF CYQA 151940Z 1520/1602 31006KT P6SM OVC040 FM152100 26005KT P6SM SCT015 TEMPO 1521/1602 BKN015 BECMG 1522/1524 VRB03KT RMK FCST BASED ON AUTO OBS. NXT FCST WILL BE ISSUED AT 161145Z